Time;durP1;ratioP1;P1;durP2;ratioP2;P2;SDS_P1;SDS_P2;PMS_P1;PMS_P2;Temp;Humidity;BMP_temperature;BMP_pressure;BME280_temperature;BME280_humidity;BME280_pressure;Samples;Min_cycle;Max_cycle;Signal;HPM_P1;HPM_P2
2022/03/18 00:01:26;;;;;;;;;;;21.60;32.30;;;;;;484192;246;1224;-39
2022/03/18 00:03:27;;;;;;;;;;;21.70;32.30;;;;;;484257;246;1310;-39
2022/03/18 00:05:28;;;;;;;;;;;21.70;32.30;;;;;;484284;246;1072;-40
2022/03/18 00:07:30;;;;;;;;;;;21.70;32.20;;;;;;484060;246;2188;-40
2022/03/18 00:09:31;;;;;;;;;;;21.70;32.20;;;;;;484387;246;1079;-40
2022/03/18 00:11:32;;;;;;;;;;;21.70;32.30;;;;;;484368;246;1388;-40
2022/03/18 00:13:34;;;;;;;;;;;21.70;32.30;;;;;;484264;246;1088;-40
2022/03/18 00:15:35;;;;;;;;;;;21.70;32.30;;;;;;484217;246;1084;-40
2022/03/18 00:17:36;;;;;;;;;;;21.70;32.30;;;;;;484284;246;1725;-40
2022/03/18 00:19:38;;;;;;;;;;;21.70;32.30;;;;;;484363;246;1213;-40
2022/03/18 00:21:39;;;;;;;;;;;21.70;32.30;;;;;;484188;246;1487;-40
2022/03/18 00:23:40;;;;;;;;;;;21.70;32.30;;;;;;484396;246;1212;-40
2022/03/18 00:25:42;;;;;;;;;;;21.70;32.30;;;;;;484579;246;1137;-40
2022/03/18 00:27:43;;;;;;;;;;;21.70;32.30;;;;;;484206;246;2180;-40
2022/03/18 00:29:44;;;;;;;;;;;21.60;32.30;;;;;;484433;246;1076;-40
2022/03/18 00:31:46;;;;;;;;;;;21.70;32.30;;;;;;484158;246;1312;-40
2022/03/18 00:33:47;;;;;;;;;;;21.70;32.40;;;;;;484512;246;1215;-40
2022/03/18 00:35:48;;;;;;;;;;;21.70;32.30;;;;;;484668;245;1256;-40
2022/03/18 00:37:50;;;;;;;;;;;21.70;32.30;;;;;;484611;246;1191;-40
2022/03/18 00:39:51;;;;;;;;;;;21.70;32.30;;;;;;484277;246;1076;-40
2022/03/18 00:41:52;;;;;;;;;;;21.70;32.20;;;;;;484250;246;1365;-39
2022/03/18 00:43:54;;;;;;;;;;;21.70;32.30;;;;;;484271;246;1070;-40
2022/03/18 00:45:55;;;;;;;;;;;21.70;32.30;;;;;;484188;246;2140;-39
2022/03/18 00:52:35;;;;;;;;;;;21.60;32.30;;;;;;484199;246;1243;-39
2022/03/18 00:54:36;;;;;;;;;;;21.70;32.30;;;;;;484274;246;2211;-39
2022/03/18 00:56:37;;;;;;;;;;;21.70;32.20;;;;;;484669;246;1225;-40
2022/03/18 00:58:39;;;;;;;;;;;21.70;32.30;;;;;;484703;246;1036;-40
2022/03/18 01:00:40;;;;;;;;;;;21.70;32.20;;;;;;484714;246;1215;-40
2022/03/18 01:02:41;;;;;;;;;;;21.70;32.20;;;;;;484280;246;1092;-40
2022/03/18 01:04:43;;;;;;;;;;;21.70;32.30;;;;;;484307;246;1166;-40
2022/03/18 01:06:44;;;;;;;;;;;21.70;32.30;;;;;;484406;246;2192;-39
2022/03/18 01:08:45;;;;;;;;;;;21.70;32.30;;;;;;484687;246;1046;-39
2022/03/18 01:10:47;;;;;;;;;;;21.70;32.30;;;;;;484277;246;1178;-39
2022/03/18 01:12:48;;;;;;;;;;;21.70;32.30;;;;;;484568;246;1186;-39
2022/03/18 01:14:49;;;;;;;;;;;21.70;32.40;;;;;;484734;246;1050;-40
2022/03/18 01:16:51;;;;;;;;;;;21.70;32.30;;;;;;484683;246;1350;-40
2022/03/18 01:18:52;;;;;;;;;;;21.60;32.30;;;;;;484684;246;1160;-40
2022/03/18 01:20:53;;;;;;;;;;;21.70;32.30;;;;;;484400;246;1262;-40
2022/03/18 01:22:55;;;;;;;;;;;21.70;32.30;;;;;;484557;246;1052;-39
2022/03/18 01:24:56;;;;;;;;;;;21.70;32.30;;;;;;484649;246;939;-39
2022/03/18 01:26:57;;;;;;;;;;;21.70;32.30;;;;;;484582;246;2113;-39
2022/03/18 01:28:59;;;;;;;;;;;21.60;32.30;;;;;;484267;246;1057;-40
2022/03/18 01:31:00;;;;;;;;;;;21.70;32.30;;;;;;484210;246;1265;-40
2022/03/18 01:33:01;;;;;;;;;;;21.60;32.30;;;;;;484680;246;1072;-39
2022/03/18 01:35:03;;;;;;;;;;;21.70;32.30;;;;;;484436;246;1178;-40
2022/03/18 01:37:04;;;;;;;;;;;21.70;32.30;;;;;;484692;246;1190;-40
2022/03/18 01:39:05;;;;;;;;;;;21.70;32.20;;;;;;484666;246;1000;-40
2022/03/18 01:41:07;;;;;;;;;;;21.70;32.20;;;;;;484639;246;1045;-40
2022/03/18 01:43:09;;;;;;;;;;;21.70;32.30;;;;;;484697;246;1129;-39
2022/03/18 01:45:09;;;;;;;;;;;21.70;32.30;;;;;;484674;246;1079;-40
2022/03/18 01:47:11;;;;;;;;;;;21.70;32.30;;;;;;484223;246;2200;-40
2022/03/18 01:49:12;;;;;;;;;;;21.70;32.30;;;;;;484475;246;1588;-39
2022/03/18 01:51:15;;;;;;;;;;;21.70;32.30;;;;;;484613;245;1193;-40
2022/03/18 01:53:16;;;;;;;;;;;21.70;32.20;;;;;;484404;246;2071;-40
2022/03/18 01:55:19;;;;;;;;;;;21.70;32.20;;;;;;484557;246;1045;-39
2022/03/18 01:57:18;;;;;;;;;;;21.70;32.20;;;;;;484367;246;1934;-40
2022/03/18 01:59:20;;;;;;;;;;;21.70;32.20;;;;;;484471;246;1098;-40
2022/03/18 02:01:21;;;;;;;;;;;21.70;32.20;;;;;;484477;246;1147;-39
2022/03/18 02:03:22;;;;;;;;;;;21.70;32.20;;;;;;484287;246;1074;-39
2022/03/18 02:05:24;;;;;;;;;;;21.70;32.20;;;;;;484428;246;1182;-40
2022/03/18 02:07:25;;;;;;;;;;;21.70;32.10;;;;;;484539;246;2128;-39
2022/03/18 02:09:26;;;;;;;;;;;21.70;32.20;;;;;;484690;246;1013;-40
2022/03/18 02:11:28;;;;;;;;;;;21.70;32.20;;;;;;484197;246;1385;-39
2022/03/18 02:13:29;;;;;;;;;;;21.70;32.10;;;;;;484255;246;1113;-39
2022/03/18 02:15:30;;;;;;;;;;;21.70;32.10;;;;;;484741;246;994;-40
2022/03/18 02:17:32;;;;;;;;;;;21.70;32.10;;;;;;484241;246;1243;-40
2022/03/18 02:19:33;;;;;;;;;;;21.80;32.20;;;;;;484490;246;1221;-39
2022/03/18 02:21:34;;;;;;;;;;;21.70;32.20;;;;;;484274;246;1165;-40
2022/03/18 02:23:35;;;;;;;;;;;21.70;32.30;;;;;;484322;246;1065;-40
2022/03/18 02:25:37;;;;;;;;;;;21.70;32.20;;;;;;484233;246;1041;-39
2022/03/18 02:27:38;;;;;;;;;;;21.70;32.20;;;;;;484522;246;2132;-40
2022/03/18 02:29:40;;;;;;;;;;;21.80;32.20;;;;;;484214;246;1095;-40
2022/03/18 02:31:41;;;;;;;;;;;21.70;32.20;;;;;;484259;246;1162;-39
2022/03/18 02:33:42;;;;;;;;;;;21.70;32.20;;;;;;484733;246;1094;-40
2022/03/18 02:35:43;;;;;;;;;;;21.70;32.20;;;;;;484260;246;1213;-40
2022/03/18 02:37:45;;;;;;;;;;;21.70;32.20;;;;;;484328;246;1210;-40
2022/03/18 02:39:46;;;;;;;;;;;21.70;32.20;;;;;;484239;246;1041;-40
2022/03/18 02:41:47;;;;;;;;;;;21.70;32.20;;;;;;484406;246;1156;-39
2022/03/18 02:43:49;;;;;;;;;;;21.70;32.20;;;;;;484257;246;1066;-40
2022/03/18 02:45:50;;;;;;;;;;;21.70;32.20;;;;;;484642;246;1125;-40
2022/03/18 02:47:51;;;;;;;;;;;21.70;32.30;;;;;;484257;246;2207;-40
2022/03/18 02:49:53;;;;;;;;;;;21.70;32.20;;;;;;484375;246;1185;-39
2022/03/18 02:51:54;;;;;;;;;;;21.70;32.20;;;;;;484645;246;1300;-39
2022/03/18 02:53:55;;;;;;;;;;;21.70;32.30;;;;;;484263;246;1069;-40
2022/03/18 02:55:56;;;;;;;;;;;21.70;32.30;;;;;;484206;246;1093;-40
2022/03/18 02:57:58;;;;;;;;;;;21.60;32.30;;;;;;484377;246;1089;-40
2022/03/18 02:59:59;;;;;;;;;;;21.70;32.30;;;;;;484732;246;1077;-39
2022/03/18 03:02:01;;;;;;;;;;;21.70;32.30;;;;;;484514;246;1177;-39
2022/03/18 03:04:02;;;;;;;;;;;21.70;32.30;;;;;;484511;246;1044;-39
2022/03/18 03:08:23;;;;;;;;;;;21.70;32.20;;;;;;484194;246;2112;-40
2022/03/18 03:10:24;;;;;;;;;;;21.70;32.20;;;;;;484544;246;1090;-39
2022/03/18 03:12:25;;;;;;;;;;;21.70;32.30;;;;;;484429;246;1169;-40
2022/03/18 03:14:27;;;;;;;;;;;21.70;32.30;;;;;;484224;246;1084;-39
2022/03/18 03:16:28;;;;;;;;;;;21.70;32.30;;;;;;484358;246;1389;-40
2022/03/18 03:18:29;;;;;;;;;;;21.70;32.30;;;;;;484248;246;1068;-40
2022/03/18 03:20:31;;;;;;;;;;;21.70;32.40;;;;;;484250;246;1174;-39
2022/03/18 03:22:32;;;;;;;;;;;21.70;32.30;;;;;;484583;246;1350;-40
2022/03/18 03:24:34;;;;;;;;;;;21.70;32.30;;;;;;484223;246;1085;-40
2022/03/18 03:26:35;;;;;;;;;;;21.70;32.20;;;;;;484147;246;2252;-39
2022/03/18 03:28:36;;;;;;;;;;;21.70;32.20;;;;;;484240;246;2124;-39
2022/03/18 03:30:37;;;;;;;;;;;21.70;32.30;;;;;;484302;246;1061;-40
2022/03/18 03:32:38;;;;;;;;;;;21.70;32.30;;;;;;484252;246;1222;-40
2022/03/18 03:34:40;;;;;;;;;;;21.70;32.30;;;;;;484626;246;1025;-39
2022/03/18 03:36:41;;;;;;;;;;;21.70;32.30;;;;;;484179;246;1274;-40
2022/03/18 03:38:42;;;;;;;;;;;21.70;32.30;;;;;;484616;246;1053;-40
2022/03/18 03:40:44;;;;;;;;;;;21.60;32.40;;;;;;484667;246;1077;-40
2022/03/18 03:42:45;;;;;;;;;;;21.70;32.40;;;;;;484189;246;1533;-40
2022/03/18 03:44:47;;;;;;;;;;;21.70;32.30;;;;;;484743;246;1023;-39
2022/03/18 03:46:48;;;;;;;;;;;21.70;32.30;;;;;;484283;246;1044;-40
2022/03/18 03:48:49;;;;;;;;;;;21.70;32.30;;;;;;484716;246;2120;-39
2022/03/18 03:50:50;;;;;;;;;;;21.70;32.30;;;;;;484525;246;1151;-40
2022/03/18 03:52:52;;;;;;;;;;;21.70;32.40;;;;;;484336;246;1086;-40
2022/03/18 03:54:55;;;;;;;;;;;21.70;32.30;;;;;;484396;246;1097;-39
2022/03/18 03:56:56;;;;;;;;;;;21.70;32.30;;;;;;484198;246;1182;-39
2022/03/18 03:58:58;;;;;;;;;;;21.70;32.30;;;;;;484718;246;1058;-40
2022/03/18 04:00:59;;;;;;;;;;;21.60;32.30;;;;;;484513;246;1115;-39
2022/03/18 04:03:00;;;;;;;;;;;21.60;32.40;;;;;;484729;246;1075;-39
2022/03/18 04:05:02;;;;;;;;;;;21.60;32.30;;;;;;484731;246;1079;-40
2022/03/18 04:07:03;;;;;;;;;;;21.60;32.30;;;;;;484237;246;2217;-39
2022/03/18 04:09:04;;;;;;;;;;;21.70;32.40;;;;;;484651;246;1068;-39
2022/03/18 04:11:06;;;;;;;;;;;21.70;32.40;;;;;;484579;246;1335;-40
2022/03/18 04:13:07;;;;;;;;;;;21.70;32.40;;;;;;484360;246;1008;-39
2022/03/18 04:15:09;;;;;;;;;;;21.70;32.40;;;;;;484279;246;1048;-40
2022/03/18 04:17:10;;;;;;;;;;;21.60;32.40;;;;;;484715;246;1100;-39
2022/03/18 04:19:11;;;;;;;;;;;21.60;32.40;;;;;;484360;246;1209;-40
2022/03/18 04:21:13;;;;;;;;;;;21.70;32.40;;;;;;484573;246;1153;-40
2022/03/18 04:23:14;;;;;;;;;;;21.70;32.30;;;;;;484214;246;2356;-39
2022/03/18 04:25:15;;;;;;;;;;;21.60;32.30;;;;;;484478;246;1255;-39
2022/03/18 04:27:16;;;;;;;;;;;21.70;32.40;;;;;;484642;246;2108;-40
2022/03/18 04:29:18;;;;;;;;;;;21.70;32.40;;;;;;484728;246;1064;-39
2022/03/18 04:31:19;;;;;;;;;;;21.60;32.40;;;;;;484259;246;1025;-40
2022/03/18 04:33:21;;;;;;;;;;;21.70;32.40;;;;;;484579;246;1086;-39
2022/03/18 04:35:23;;;;;;;;;;;21.70;32.40;;;;;;484378;246;1062;-39
2022/03/18 04:37:24;;;;;;;;;;;21.70;32.30;;;;;;484143;246;2359;-39
2022/03/18 04:39:25;;;;;;;;;;;21.70;32.30;;;;;;484744;246;1011;-39
2022/03/18 04:41:26;;;;;;;;;;;21.70;32.30;;;;;;484254;246;1088;-40
2022/03/18 04:43:27;;;;;;;;;;;21.70;32.20;;;;;;484310;246;1072;-39
2022/03/18 04:45:29;;;;;;;;;;;21.70;32.30;;;;;;484577;246;1051;-39
2022/03/18 04:47:33;;;;;;;;;;;21.70;32.30;;;;;;484666;246;2108;-40
2022/03/18 04:49:31;;;;;;;;;;;21.70;32.30;;;;;;484113;246;2564;-39
2022/03/18 04:51:33;;;;;;;;;;;21.70;32.30;;;;;;484233;246;1328;-40
2022/03/18 04:53:36;;;;;;;;;;;21.70;32.30;;;;;;484230;246;1038;-40
2022/03/18 04:55:35;;;;;;;;;;;21.70;32.30;;;;;;484412;246;2092;-40
2022/03/18 04:57:37;;;;;;;;;;;21.70;32.30;;;;;;484664;246;1253;-40
2022/03/18 04:59:40;;;;;;;;;;;21.70;32.30;;;;;;484241;246;1095;-39
2022/03/18 05:01:39;;;;;;;;;;;21.70;32.30;;;;;;484012;246;2105;-39
2022/03/18 05:03:41;;;;;;;;;;;21.70;32.20;;;;;;484177;246;1063;-40
2022/03/18 05:05:42;;;;;;;;;;;21.70;32.30;;;;;;484390;246;1171;-40
2022/03/18 05:07:44;;;;;;;;;;;21.70;32.30;;;;;;484133;246;2199;-40
2022/03/18 05:09:45;;;;;;;;;;;21.70;32.30;;;;;;484564;246;1051;-39
2022/03/18 05:11:46;;;;;;;;;;;21.70;32.20;;;;;;484592;246;1064;-39
2022/03/18 05:13:48;;;;;;;;;;;21.70;32.30;;;;;;484618;246;983;-40
2022/03/18 05:15:49;;;;;;;;;;;21.70;32.30;;;;;;484152;246;2370;-40
2022/03/18 05:17:50;;;;;;;;;;;21.70;32.30;;;;;;484344;246;2264;-40
2022/03/18 05:19:52;;;;;;;;;;;21.70;32.30;;;;;;484477;246;1058;-40
2022/03/18 05:21:53;;;;;;;;;;;21.70;32.20;;;;;;484453;246;1187;-39
2022/03/18 05:23:54;;;;;;;;;;;21.70;32.30;;;;;;484485;246;984;-40
2022/03/18 05:25:55;;;;;;;;;;;21.70;32.30;;;;;;484569;246;1065;-40
2022/03/18 05:27:57;;;;;;;;;;;21.70;32.30;;;;;;484429;246;2203;-39
2022/03/18 05:29:58;;;;;;;;;;;21.70;32.30;;;;;;484361;246;961;-40
2022/03/18 05:31:59;;;;;;;;;;;21.70;32.30;;;;;;484402;246;1099;-39
2022/03/18 05:34:01;;;;;;;;;;;21.70;32.30;;;;;;484248;246;1249;-39
2022/03/18 05:36:02;;;;;;;;;;;21.70;32.30;;;;;;484281;246;1072;-39
2022/03/18 05:38:04;;;;;;;;;;;21.70;32.30;;;;;;484192;246;1211;-39
2022/03/18 05:40:05;;;;;;;;;;;21.70;32.30;;;;;;484032;246;2181;-39
2022/03/18 05:42:06;;;;;;;;;;;21.70;32.30;;;;;;484425;246;1056;-39
2022/03/18 05:44:08;;;;;;;;;;;21.70;32.30;;;;;;484178;246;1023;-39
2022/03/18 05:46:09;;;;;;;;;;;21.70;32.20;;;;;;484344;246;1068;-40
2022/03/18 05:48:10;;;;;;;;;;;21.70;32.20;;;;;;484130;246;2196;-40
2022/03/18 05:50:15;;;;;;;;;;;21.80;32.30;;;;;;484381;246;1107;-39
2022/03/18 05:52:13;;;;;;;;;;;21.70;32.20;;;;;;483925;246;2037;-39
2022/03/18 05:54:14;;;;;;;;;;;21.80;32.20;;;;;;484353;246;1049;-40
2022/03/18 05:58:35;;;;;;;;;;;21.70;32.30;;;;;;484493;246;1044;-39
2022/03/18 06:00:36;;;;;;;;;;;21.70;32.20;;;;;;484130;246;1075;-39
2022/03/18 06:02:38;;;;;;;;;;;21.70;32.30;;;;;;484095;246;1078;-39
2022/03/18 06:04:39;;;;;;;;;;;21.80;32.30;;;;;;484379;246;1021;-39
2022/03/18 06:06:40;;;;;;;;;;;21.70;32.30;;;;;;484316;246;1311;-39
2022/03/18 06:13:20;;;;;;;;;;;21.70;32.30;;;;;;484127;246;1077;-40
2022/03/18 06:15:21;;;;;;;;;;;21.70;32.30;;;;;;484501;246;1058;-39
2022/03/18 06:17:22;;;;;;;;;;;21.70;32.30;;;;;;484063;246;1164;-39
2022/03/18 06:19:24;;;;;;;;;;;21.70;32.40;;;;;;484131;246;1066;-40
2022/03/18 06:21:25;;;;;;;;;;;21.70;32.30;;;;;;484205;246;1184;-40
2022/03/18 06:23:26;;;;;;;;;;;21.70;32.30;;;;;;484080;246;1192;-39
2022/03/18 06:25:28;;;;;;;;;;;21.60;32.40;;;;;;484029;246;1162;-39
2022/03/18 06:27:29;;;;;;;;;;;21.70;32.40;;;;;;483868;246;1499;-40
2022/03/18 06:29:31;;;;;;;;;;;21.60;32.40;;;;;;484052;246;2191;-39
2022/03/18 06:31:31;;;;;;;;;;;21.70;32.40;;;;;;483875;246;1508;-39
2022/03/18 06:33:33;;;;;;;;;;;21.70;32.40;;;;;;483909;246;1193;-40
2022/03/18 06:35:34;;;;;;;;;;;21.70;32.30;;;;;;483902;246;1266;-39
2022/03/18 06:37:36;;;;;;;;;;;21.70;32.30;;;;;;483783;246;1455;-40
2022/03/18 06:39:37;;;;;;;;;;;21.70;32.30;;;;;;483850;246;1081;-39
2022/03/18 06:41:39;;;;;;;;;;;21.60;32.40;;;;;;484054;246;1102;-40
2022/03/18 06:43:40;;;;;;;;;;;21.70;32.50;;;;;;484135;246;1074;-39
2022/03/18 06:45:41;;;;;;;;;;;21.70;32.40;;;;;;484004;246;1265;-39
2022/03/18 06:47:42;;;;;;;;;;;21.70;32.40;;;;;;483856;246;1050;-39
2022/03/18 06:49:44;;;;;;;;;;;21.70;32.40;;;;;;483997;246;2120;-39
2022/03/18 06:51:45;;;;;;;;;;;21.70;32.40;;;;;;484149;246;1586;-40
2022/03/18 06:53:46;;;;;;;;;;;21.70;32.40;;;;;;483912;246;1297;-40
2022/03/18 06:55:48;;;;;;;;;;;21.70;32.40;;;;;;484113;246;1041;-40
2022/03/18 06:57:49;;;;;;;;;;;21.70;32.40;;;;;;483895;246;1263;-39
2022/03/18 06:59:50;;;;;;;;;;;21.70;32.40;;;;;;483930;246;1033;-40
2022/03/18 07:01:53;;;;;;;;;;;21.60;32.40;;;;;;483886;246;1219;-39
2022/03/18 07:03:53;;;;;;;;;;;21.60;32.50;;;;;;483751;246;2054;-40
2022/03/18 07:05:55;;;;;;;;;;;21.70;32.40;;;;;;483997;246;1183;-40
2022/03/18 07:07:56;;;;;;;;;;;21.70;32.40;;;;;;483866;246;1168;-39
2022/03/18 07:09:58;;;;;;;;;;;21.70;32.40;;;;;;483885;246;2216;-39
2022/03/18 07:11:59;;;;;;;;;;;21.70;32.40;;;;;;483799;246;1227;-39
2022/03/18 07:14:00;;;;;;;;;;;21.70;32.30;;;;;;483811;246;1132;-40
2022/03/18 07:18:24;;;;;;;;;;;21.80;32.30;;;;;;483698;246;1641;-39
2022/03/18 07:20:25;;;;;;;;;;;21.70;32.30;;;;;;483908;246;1062;-39
2022/03/18 07:22:27;;;;;;;;;;;21.70;32.30;;;;;;483703;246;1250;-40
2022/03/18 07:24:28;;;;;;;;;;;21.70;32.30;;;;;;483849;246;1167;-40
2022/03/18 07:26:30;;;;;;;;;;;21.70;32.30;;;;;;484078;246;1048;-40
2022/03/18 07:28:31;;;;;;;;;;;21.70;32.30;;;;;;483882;246;2210;-40
2022/03/18 07:30:32;;;;;;;;;;;21.70;32.30;;;;;;483849;246;1109;-40
2022/03/18 07:32:34;;;;;;;;;;;21.70;32.30;;;;;;483814;246;1061;-40
2022/03/18 07:34:35;;;;;;;;;;;21.70;32.40;;;;;;483853;246;1075;-40
2022/03/18 07:36:36;;;;;;;;;;;21.80;32.30;;;;;;483922;246;1307;-40
2022/03/18 07:38:38;;;;;;;;;;;21.80;32.30;;;;;;483786;246;1183;-39
2022/03/18 07:40:39;;;;;;;;;;;21.80;32.30;;;;;;483836;246;1094;-39
2022/03/18 07:42:41;;;;;;;;;;;21.70;32.30;;;;;;483793;246;1163;-39
2022/03/18 07:44:42;;;;;;;;;;;21.80;32.30;;;;;;483771;246;1083;-40
2022/03/18 07:46:43;;;;;;;;;;;21.70;32.30;;;;;;483649;246;1097;-40
2022/03/18 07:48:46;;;;;;;;;;;21.80;32.30;;;;;;483568;246;2180;-40
2022/03/18 07:50:46;;;;;;;;;;;21.80;32.20;;;;;;483493;246;2088;-39
2022/03/18 07:52:48;;;;;;;;;;;21.80;32.30;;;;;;483641;246;1058;-39
2022/03/18 07:54:49;;;;;;;;;;;21.80;32.30;;;;;;483669;246;1208;-39
2022/03/18 07:56:51;;;;;;;;;;;21.80;32.20;;;;;;483642;246;1101;-39
2022/03/18 07:58:52;;;;;;;;;;;21.80;32.20;;;;;;483533;246;1099;-40
2022/03/18 08:00:53;;;;;;;;;;;21.80;32.20;;;;;;483526;246;1240;-40
2022/03/18 08:02:54;;;;;;;;;;;21.80;32.20;;;;;;483511;246;1099;-40
2022/03/18 08:04:57;;;;;;;;;;;21.80;32.20;;;;;;483765;246;1094;-39
2022/03/18 08:06:59;;;;;;;;;;;21.80;32.30;;;;;;483404;246;1085;-39
2022/03/18 08:08:59;;;;;;;;;;;21.80;32.30;;;;;;483380;246;2225;-39
2022/03/18 08:11:01;;;;;;;;;;;21.80;32.30;;;;;;483456;246;1111;-40
2022/03/18 08:13:02;;;;;;;;;;;21.80;32.30;;;;;;483528;246;1041;-40
2022/03/18 08:15:03;;;;;;;;;;;21.70;32.20;;;;;;483562;246;1084;-40
2022/03/18 08:17:05;;;;;;;;;;;21.80;32.20;;;;;;483531;246;1116;-39
2022/03/18 08:19:06;;;;;;;;;;;21.80;32.20;;;;;;483690;246;1115;-40
2022/03/18 08:21:07;;;;;;;;;;;21.80;32.20;;;;;;483535;246;1242;-39
2022/03/18 08:23:09;;;;;;;;;;;21.80;32.20;;;;;;483507;246;1160;-40
2022/03/18 08:25:10;;;;;;;;;;;21.80;32.20;;;;;;483798;246;1206;-40
2022/03/18 08:27:11;;;;;;;;;;;21.70;32.20;;;;;;483650;246;1273;-40
2022/03/18 08:29:13;;;;;;;;;;;21.80;32.30;;;;;;483625;246;2125;-39
2022/03/18 08:31:14;;;;;;;;;;;21.80;32.20;;;;;;483624;246;1232;-40
2022/03/18 08:33:15;;;;;;;;;;;21.70;32.20;;;;;;483799;246;1113;-40
2022/03/18 08:35:17;;;;;;;;;;;21.80;32.20;;;;;;483459;246;1147;-40
2022/03/18 08:37:56;;;;;;;;;;;21.80;32.20;;;;;;483320;246;1258;-40
2022/03/18 08:39:20;;;;;;;;;;;21.80;32.10;;;;;;481950;246;2137;-40
2022/03/18 08:41:21;;;;;;;;;;;21.80;32.20;;;;;;483420;246;1120;-40
2022/03/18 08:43:22;;;;;;;;;;;21.80;32.20;;;;;;483545;246;1322;-39
2022/03/18 08:45:24;;;;;;;;;;;21.80;32.20;;;;;;483490;246;1080;-39
2022/03/18 08:47:25;;;;;;;;;;;21.80;32.20;;;;;;483443;246;1343;-40
2022/03/18 08:49:26;;;;;;;;;;;21.80;32.20;;;;;;483554;246;2199;-40
2022/03/18 08:51:27;;;;;;;;;;;21.80;32.20;;;;;;483740;246;1102;-39
2022/03/18 08:53:29;;;;;;;;;;;21.80;32.10;;;;;;483672;246;1040;-39
2022/03/18 08:55:32;;;;;;;;;;;21.80;32.10;;;;;;483660;246;1396;-40
2022/03/18 08:57:34;;;;;;;;;;;21.80;32.10;;;;;;483408;246;1948;-39
2022/03/18 08:59:33;;;;;;;;;;;21.80;32.10;;;;;;483371;246;2292;-39
2022/03/18 09:01:34;;;;;;;;;;;21.80;32.10;;;;;;483388;246;1102;-40
2022/03/18 09:03:36;;;;;;;;;;;21.80;32.10;;;;;;483647;246;1156;-40
2022/03/18 09:05:37;;;;;;;;;;;21.80;32.00;;;;;;483641;246;1245;-39
2022/03/18 09:07:38;;;;;;;;;;;21.80;32.10;;;;;;483502;246;1109;-39
2022/03/18 09:09:40;;;;;;;;;;;21.80;32.10;;;;;;483334;246;2244;-40
2022/03/18 09:11:41;;;;;;;;;;;21.80;32.10;;;;;;483341;246;1039;-39
2022/03/18 09:13:42;;;;;;;;;;;21.80;32.10;;;;;;483436;246;1121;-40
2022/03/18 09:15:44;;;;;;;;;;;21.80;32.10;;;;;;483325;246;1051;-40
2022/03/18 09:17:45;;;;;;;;;;;21.80;32.10;;;;;;483441;246;1201;-40
2022/03/18 09:19:47;;;;;;;;;;;21.80;32.20;;;;;;483659;246;1024;-40
2022/03/18 09:21:48;;;;;;;;;;;21.80;32.10;;;;;;483623;245;1215;-40
2022/03/18 09:23:49;;;;;;;;;;;21.80;32.10;;;;;;483728;246;1087;-40
2022/03/18 09:25:51;;;;;;;;;;;21.80;32.10;;;;;;483609;246;1531;-40
2022/03/18 09:27:52;;;;;;;;;;;21.80;32.10;;;;;;483646;246;1181;-40
2022/03/18 09:29:54;;;;;;;;;;;21.80;32.10;;;;;;483525;246;2191;-39
2022/03/18 09:31:55;;;;;;;;;;;21.70;32.10;;;;;;483287;246;1319;-39
2022/03/18 09:33:57;;;;;;;;;;;21.80;32.20;;;;;;483549;246;1127;-40
2022/03/18 09:35:58;;;;;;;;;;;21.80;32.10;;;;;;483400;246;1198;-40
2022/03/18 09:37:59;;;;;;;;;;;21.80;32.10;;;;;;483487;246;1095;-39
2022/03/18 09:40:01;;;;;;;;;;;21.70;32.10;;;;;;483506;246;1395;-40
2022/03/18 09:42:02;;;;;;;;;;;21.80;32.10;;;;;;483230;246;2194;-40
2022/03/18 09:44:03;;;;;;;;;;;21.80;32.10;;;;;;483328;246;1075;-40
2022/03/18 09:46:04;;;;;;;;;;;21.90;32.10;;;;;;483474;246;1322;-40
2022/03/18 09:48:06;;;;;;;;;;;21.80;32.00;;;;;;483465;246;1160;-40
2022/03/18 09:50:08;;;;;;;;;;;21.80;32.00;;;;;;483674;246;2177;-40
2022/03/18 09:52:10;;;;;;;;;;;21.90;32.00;;;;;;483539;246;1254;-40
2022/03/18 09:54:10;;;;;;;;;;;21.80;32.00;;;;;;483477;246;2367;-39
2022/03/18 09:56:12;;;;;;;;;;;21.90;32.00;;;;;;483241;246;1312;-40
2022/03/18 09:58:13;;;;;;;;;;;21.90;32.00;;;;;;483408;246;1097;-40
2022/03/18 10:00:15;;;;;;;;;;;21.90;32.00;;;;;;483523;246;1097;-39
2022/03/18 10:02:16;;;;;;;;;;;21.80;32.00;;;;;;483461;246;1823;-40
2022/03/18 10:04:17;;;;;;;;;;;21.90;32.00;;;;;;483488;246;1135;-39
2022/03/18 10:06:19;;;;;;;;;;;21.90;32.00;;;;;;483527;242;1422;-40
2022/03/18 10:08:21;;;;;;;;;;;21.80;32.00;;;;;;483438;246;2273;-40
2022/03/18 10:10:23;;;;;;;;;;;21.80;32.00;;;;;;483664;246;2190;-40
2022/03/18 10:12:23;;;;;;;;;;;21.80;32.00;;;;;;483457;246;2317;-40
2022/03/18 10:14:25;;;;;;;;;;;21.80;32.10;;;;;;483495;246;1202;-40
2022/03/18 10:16:25;;;;;;;;;;;21.80;32.00;;;;;;483133;246;2239;-39
2022/03/18 10:18:26;;;;;;;;;;;21.90;32.00;;;;;;483431;246;1078;-40
2022/03/18 10:20:28;;;;;;;;;;;21.80;32.00;;;;;;483308;246;1157;-39
2022/03/18 10:22:30;;;;;;;;;;;21.80;32.00;;;;;;483335;246;1057;-40
2022/03/18 10:24:30;;;;;;;;;;;21.90;31.90;;;;;;483277;246;2093;-40
2022/03/18 10:26:32;;;;;;;;;;;21.90;31.90;;;;;;483230;246;1205;-40
2022/03/18 10:28:36;;;;;;;;;;;21.90;32.00;;;;;;483384;246;1030;-39
2022/03/18 10:30:34;;;;;;;;;;;21.90;32.00;;;;;;483264;246;2224;-40
2022/03/18 10:32:36;;;;;;;;;;;21.80;31.90;;;;;;483663;246;1057;-40
2022/03/18 10:37:06;;;;;;;;;;;21.80;32.00;;;;;;483606;246;1060;-40
2022/03/18 10:39:07;;;;;;;;;;;21.80;31.90;;;;;;483524;246;1190;-39
2022/03/18 10:41:08;;;;;;;;;;;21.80;31.90;;;;;;483431;246;1181;-40
2022/03/18 10:43:09;;;;;;;;;;;21.80;31.90;;;;;;483485;246;1238;-39
2022/03/18 10:45:11;;;;;;;;;;;21.90;32.00;;;;;;483598;246;1144;-40
2022/03/18 10:47:12;;;;;;;;;;;21.80;31.90;;;;;;483469;246;1105;-40
2022/03/18 10:49:13;;;;;;;;;;;21.90;31.90;;;;;;483534;246;1239;-40
2022/03/18 10:51:14;;;;;;;;;;;21.80;31.90;;;;;;483442;246;2187;-40
2022/03/18 10:53:18;;;;;;;;;;;21.80;31.90;;;;;;483436;246;1209;-40
2022/03/18 10:55:17;;;;;;;;;;;21.80;31.90;;;;;;483530;246;2344;-39
2022/03/18 10:57:18;;;;;;;;;;;21.80;31.90;;;;;;483541;246;1211;-39
2022/03/18 10:59:20;;;;;;;;;;;21.90;31.90;;;;;;483710;246;1250;-40
2022/03/18 11:01:21;;;;;;;;;;;21.80;31.90;;;;;;483662;246;1134;-39
2022/03/18 11:03:23;;;;;;;;;;;21.80;31.90;;;;;;483592;246;1089;-40
2022/03/18 11:05:24;;;;;;;;;;;21.90;31.90;;;;;;483509;246;1232;-40
2022/03/18 11:07:31;;;;;;;;;;;21.80;31.80;;;;;;483691;246;1338;-39
2022/03/18 11:11:06;;;;;;;;;;;21.90;31.80;;;;;;483562;246;2188;-39
2022/03/18 11:11:35;;;;;;;;;;;21.90;31.80;;;;;;481236;246;1884;-40
2022/03/18 11:13:37;;;;;;;;;;;21.90;31.80;;;;;;483489;246;1067;-40
2022/03/18 11:15:39;;;;;;;;;;;21.90;31.80;;;;;;483383;246;1146;-40
2022/03/18 11:17:40;;;;;;;;;;;21.90;31.70;;;;;;483293;246;2117;-40
2022/03/18 11:19:44;;;;;;;;;;;21.90;31.80;;;;;;483405;246;1083;-40
2022/03/18 11:21:42;;;;;;;;;;;21.90;31.80;;;;;;483309;246;2311;-39
2022/03/18 11:23:45;;;;;;;;;;;21.90;31.80;;;;;;483579;246;1081;-40
2022/03/18 11:25:46;;;;;;;;;;;21.90;31.80;;;;;;483647;246;1756;-40
2022/03/18 11:27:47;;;;;;;;;;;21.90;31.80;;;;;;483680;246;1215;-40
2022/03/18 11:29:50;;;;;;;;;;;21.90;31.70;;;;;;483622;246;2183;-40
2022/03/18 11:31:50;;;;;;;;;;;21.90;31.80;;;;;;483598;246;2072;-39
2022/03/18 11:33:51;;;;;;;;;;;21.90;31.80;;;;;;483650;246;1184;-39
2022/03/18 11:35:53;;;;;;;;;;;21.90;31.80;;;;;;483773;246;1092;-40
2022/03/18 11:37:54;;;;;;;;;;;21.90;31.80;;;;;;483684;246;1294;-40
2022/03/18 11:39:55;;;;;;;;;;;21.80;31.70;;;;;;483578;246;1067;-40
2022/03/18 11:41:57;;;;;;;;;;;21.90;31.70;;;;;;483540;246;1141;-40
2022/03/18 11:43:58;;;;;;;;;;;21.80;31.70;;;;;;483682;246;1116;-39
2022/03/18 11:45:59;;;;;;;;;;;21.80;31.70;;;;;;483470;246;1372;-39
2022/03/18 11:48:01;;;;;;;;;;;21.80;31.80;;;;;;483399;246;1141;-39
2022/03/18 11:50:05;;;;;;;;;;;21.80;31.70;;;;;;483449;246;2184;-40
2022/03/18 11:52:04;;;;;;;;;;;21.90;31.70;;;;;;483382;246;2190;-40
2022/03/18 11:54:07;;;;;;;;;;;21.90;31.70;;;;;;483548;246;1129;-40
2022/03/18 11:56:07;;;;;;;;;;;21.90;31.70;;;;;;483644;246;1838;-40
2022/03/18 11:58:08;;;;;;;;;;;21.90;31.70;;;;;;483553;246;1268;-39
2022/03/18 12:00:10;;;;;;;;;;;21.80;31.60;;;;;;483411;246;1156;-40
2022/03/18 12:02:12;;;;;;;;;;;21.90;31.60;;;;;;483549;246;1089;-40
2022/03/18 12:04:12;;;;;;;;;;;21.90;31.60;;;;;;483444;246;2246;-39
2022/03/18 12:06:13;;;;;;;;;;;21.90;31.60;;;;;;483466;246;1185;-40
2022/03/18 12:08:15;;;;;;;;;;;21.90;31.60;;;;;;483523;246;1112;-40
2022/03/18 12:10:18;;;;;;;;;;;21.80;31.60;;;;;;483536;246;2117;-40
2022/03/18 12:12:17;;;;;;;;;;;21.90;31.50;;;;;;483387;246;1490;-40
2022/03/18 12:14:19;;;;;;;;;;;21.90;31.60;;;;;;483707;246;1080;-40
2022/03/18 12:16:20;;;;;;;;;;;21.80;31.70;;;;;;483509;246;1304;-40